createdAt,value
2022-11-07T00:02:53.401Z,100477.75
2022-11-07T00:05:49.984Z,100470.53
2022-11-07T00:08:47.064Z,100486.75
2022-11-07T00:11:44.060Z,100486.06
2022-11-07T00:14:40.761Z,100479.06
2022-11-07T00:17:38.204Z,100481.81
2022-11-07T00:20:35.112Z,100491.81
2022-11-07T00:23:32.253Z,100476.31
2022-11-07T00:26:29.148Z,100479.66
2022-11-07T00:29:26.205Z,100476.00
2022-11-07T00:32:23.094Z,100487.16
2022-11-07T00:35:20.138Z,100473.47
2022-11-07T00:38:17.217Z,100478.75
2022-11-07T00:41:14.166Z,100486.06
2022-11-07T00:44:11.219Z,100466.94
2022-11-07T00:47:08.141Z,100475.78
2022-11-07T00:50:05.728Z,100485.25
2022-11-07T00:53:03.341Z,100484.41
2022-11-07T00:56:03.956Z,100491.59
2022-11-07T00:59:01.315Z,100506.47
2022-11-07T01:01:58.200Z,100498.41
2022-11-07T01:05:13.201Z,100511.91
2022-11-07T01:08:10.251Z,100507.59
2022-11-07T01:11:07.245Z,100506.75
2022-11-07T01:14:04.264Z,100510.25
2022-11-07T01:17:01.063Z,100493.44
2022-11-07T01:19:58.086Z,100519.97
2022-11-07T01:22:54.904Z,100513.63
2022-11-07T01:25:52.307Z,100528.97
2022-11-07T01:28:49.096Z,100519.50
2022-11-07T01:31:46.288Z,100517.72
2022-11-07T01:34:43.286Z,100510.25
2022-11-07T01:37:40.349Z,100530.66
2022-11-07T01:41:01.560Z,100518.28
2022-11-07T01:44:09.015Z,100505.81
2022-11-07T01:47:06.050Z,100507.88
2022-11-07T01:50:03.542Z,100518.19
2022-11-07T01:52:59.869Z,100507.59
2022-11-07T01:55:57.262Z,100513.09
2022-11-07T01:58:55.487Z,100517.13
2022-11-07T02:01:52.006Z,100522.03
2022-11-07T02:04:49.242Z,100521.19
2022-11-07T02:07:46.187Z,100527.22
2022-11-07T02:10:42.977Z,100524.56
2022-11-07T02:13:40.264Z,100525.38
2022-11-07T02:16:37.339Z,100535.34
2022-11-07T02:19:47.512Z,100540.06
2022-11-07T02:23:36.560Z,100538.47
2022-11-07T02:26:33.405Z,100532.00
2022-11-07T02:29:29.933Z,100540.94
2022-11-07T02:32:27.055Z,100539.00
2022-11-07T02:35:43.336Z,100534.66
2022-11-07T02:38:39.954Z,100527.38
2022-11-07T02:41:37.343Z,100526.06
2022-11-07T02:44:34.439Z,100522.63
2022-11-07T02:47:31.116Z,100508.56
2022-11-07T02:50:28.731Z,100523.38
2022-11-07T02:53:26.019Z,100530.03
2022-11-07T02:56:23.615Z,100520.28
2022-11-07T02:59:24.375Z,100534.59
2022-11-07T03:02:25.314Z,100538.84
2022-11-07T03:05:22.355Z,100535.13
2022-11-07T03:08:19.220Z,100533.56
2022-11-07T03:11:20.056Z,100543.91
2022-11-07T03:14:17.046Z,100539.53
2022-11-07T03:17:13.878Z,100541.53
2022-11-07T03:20:11.589Z,100539.88
2022-11-07T03:23:08.105Z,100532.16
2022-11-07T03:26:05.253Z,100557.91
2022-11-07T03:29:02.654Z,100559.03
2022-11-07T03:31:59.375Z,100541.09
2022-11-07T03:34:56.096Z,100532.00
2022-11-07T03:37:53.134Z,100548.91
2022-11-07T03:40:50.024Z,100561.00
2022-11-07T03:43:47.480Z,100554.13
2022-11-07T03:46:44.308Z,100556.88
2022-11-07T03:49:41.590Z,100548.84
2022-11-07T03:52:38.421Z,100550.31
2022-11-07T03:55:35.228Z,100551.16
2022-11-07T03:58:32.149Z,100560.91
2022-11-07T04:01:29.333Z,100556.53
2022-11-07T04:04:26.648Z,100561.19
2022-11-07T04:07:22.985Z,100565.88
2022-11-07T04:10:20.308Z,100559.91
2022-11-07T04:13:35.772Z,100557.19
2022-11-07T04:16:51.865Z,100568.78
2022-11-07T04:19:50.990Z,100569.69
2022-11-07T04:22:48.361Z,100571.44
2022-11-07T04:26:04.405Z,100573.28
2022-11-07T04:29:01.300Z,100562.97
2022-11-07T04:31:58.136Z,100571.91
2022-11-07T04:34:55.680Z,100574.31
2022-11-07T04:37:52.240Z,100572.06
2022-11-07T04:40:55.903Z,100568.88
2022-11-07T04:43:53.035Z,100581.94
2022-11-07T04:46:50.439Z,100570.81
2022-11-07T04:49:47.640Z,100580.94
2022-11-07T04:52:45.410Z,100580.09
2022-11-07T04:55:42.581Z,100581.56
2022-11-07T04:58:39.311Z,100576.56
2022-11-07T05:01:36.636Z,100587.81
2022-11-07T05:04:33.642Z,100581.16
2022-11-07T05:07:30.037Z,100598.00
2022-11-07T05:10:28.382Z,100593.41
2022-11-07T05:13:25.349Z,100584.53
2022-11-07T05:16:22.293Z,100582.94
2022-11-07T05:19:19.331Z,100584.28
2022-11-07T05:22:35.274Z,100584.28
2022-11-07T05:25:32.452Z,100587.88
2022-11-07T05:28:38.264Z,100594.50
2022-11-07T05:31:36.254Z,100589.69
2022-11-07T05:34:33.196Z,100592.06
2022-11-07T05:37:30.133Z,100596.31
2022-11-07T05:40:27.745Z,100573.28
2022-11-07T05:43:25.684Z,100588.41
2022-11-07T05:46:22.342Z,100592.97
2022-11-07T05:49:19.148Z,100591.38
2022-11-07T05:52:16.390Z,100588.34
2022-11-07T05:55:13.365Z,100591.44
2022-11-07T05:58:11.261Z,100602.03
2022-11-07T06:01:08.383Z,100603.09
2022-11-07T06:04:05.741Z,100592.06
2022-11-07T06:07:02.251Z,100603.31
2022-11-07T06:09:59.217Z,100607.28
2022-11-07T06:13:03.171Z,100606.22
2022-11-07T06:16:00.704Z,100620.31
2022-11-07T06:18:57.268Z,100628.25
2022-11-07T06:21:54.768Z,100613.59
2022-11-07T06:24:52.521Z,100613.91
2022-11-07T06:27:49.328Z,100618.59
2022-11-07T06:30:46.589Z,100615.56
2022-11-07T06:33:43.379Z,100613.66
2022-11-07T06:36:40.669Z,100612.38
2022-11-07T06:39:37.595Z,100621.97
2022-11-07T06:42:34.458Z,100618.38
2022-11-07T06:45:31.120Z,100620.19
2022-11-07T06:48:28.208Z,100621.13
2022-11-07T06:51:25.671Z,100624.41
2022-11-07T06:54:22.480Z,100640.25
2022-11-07T06:57:19.454Z,100632.84
2022-11-07T07:00:16.834Z,100636.38
2022-11-07T07:03:14.634Z,100635.28
2022-11-07T07:06:15.136Z,100640.50
2022-11-07T07:09:12.521Z,100646.16
2022-11-07T07:12:10.674Z,100645.03
2022-11-07T07:15:08.109Z,100646.00
2022-11-07T07:18:05.610Z,100652.53
2022-11-07T07:21:10.880Z,100650.94
2022-11-07T07:24:08.510Z,100650.16
2022-11-07T07:27:05.233Z,100655.84
2022-11-07T07:30:02.626Z,100656.28
2022-11-07T07:33:00.453Z,100654.59
2022-11-07T07:35:57.404Z,100670.16
2022-11-07T07:38:54.136Z,100661.34
2022-11-07T07:41:51.746Z,100655.34
2022-11-07T07:44:51.348Z,100674.56
2022-11-07T07:47:48.353Z,100675.66
2022-11-07T07:50:49.044Z,100681.25
2022-11-07T07:53:46.662Z,100680.03
2022-11-07T07:56:43.487Z,100682.13
2022-11-07T07:59:40.630Z,100675.06
2022-11-07T08:02:37.554Z,100672.75
2022-11-07T08:05:34.548Z,100671.81
2022-11-07T08:08:36.868Z,100697.78
2022-11-07T08:11:35.530Z,100684.38
2022-11-07T08:14:32.987Z,100689.19
2022-11-07T08:17:30.728Z,100683.47
2022-11-07T08:20:28.115Z,100687.28
2022-11-07T08:23:25.647Z,100674.25
2022-11-07T08:26:22.453Z,100680.22
2022-11-07T08:29:19.592Z,100676.84
2022-11-07T08:32:16.469Z,100672.06
2022-11-07T08:35:13.688Z,100678.47
2022-11-07T08:38:10.710Z,100682.53
2022-11-07T08:41:07.238Z,100685.81
2022-11-07T08:44:04.965Z,100688.53
2022-11-07T08:47:08.318Z,100684.66
2022-11-07T08:50:06.272Z,100696.53
2022-11-07T08:53:03.991Z,100694.25
2022-11-07T08:56:08.962Z,100691.03
2022-11-07T08:59:06.421Z,100682.69
2022-11-07T09:02:44.625Z,100689.50
2022-11-07T09:05:20.362Z,100694.63
2022-11-07T09:08:17.795Z,100692.78
2022-11-07T09:11:15.828Z,100697.69
2022-11-07T09:14:13.275Z,100696.31
2022-11-07T09:17:10.394Z,100706.13
2022-11-07T09:20:08.339Z,100696.66
2022-11-07T09:23:05.573Z,100711.91
2022-11-07T09:26:02.580Z,100723.66
2022-11-07T09:29:01.314Z,100713.22
2022-11-07T09:31:58.687Z,100701.59
2022-11-07T09:35:04.743Z,100709.72
2022-11-07T09:38:02.529Z,100718.88
2022-11-07T09:41:05.704Z,100715.72
2022-11-07T09:44:29.738Z,100713.81
2022-11-07T09:48:02.021Z,100725.00
2022-11-07T09:51:00.002Z,100728.97
2022-11-07T09:53:59.847Z,100732.44
2022-11-07T09:56:58.044Z,100732.88
2022-11-07T09:59:57.918Z,100733.06
2022-11-07T10:02:56.751Z,100726.94
2022-11-07T10:06:02.437Z,100740.03
2022-11-07T10:09:20.858Z,100739.19
2022-11-07T10:12:34.423Z,100733.00
2022-11-07T10:15:59.385Z,100747.66
2022-11-07T10:19:06.610Z,100737.66
2022-11-07T10:22:23.018Z,100742.81
2022-11-07T10:25:42.588Z,100753.06
2022-11-07T10:29:18.268Z,100764.25
2022-11-07T10:32:35.796Z,100757.47
2022-11-07T10:35:34.283Z,100758.09
2022-11-07T10:38:32.554Z,100757.91
2022-11-07T10:41:31.736Z,100761.63
2022-11-07T10:44:28.670Z,100772.78
2022-11-07T10:47:30.494Z,100754.56
2022-11-07T10:50:27.683Z,100752.22
2022-11-07T10:53:25.832Z,100749.94
2022-11-07T10:56:22.734Z,100749.63
2022-11-07T10:59:31.414Z,100767.09
2022-11-07T11:02:46.874Z,100752.28
2022-11-07T11:05:44.566Z,100765.50
2022-11-07T11:08:41.534Z,100757.91
2022-11-07T11:11:39.339Z,100761.13
2022-11-07T11:14:37.083Z,100751.13
2022-11-07T11:17:34.967Z,100748.63
2022-11-07T11:20:34.214Z,100756.47
2022-11-07T11:23:35.460Z,100748.22
2022-11-07T11:26:35.569Z,100749.94
2022-11-07T11:29:50.646Z,100741.59
2022-11-07T11:32:53.588Z,100744.94
2022-11-07T11:35:56.104Z,100745.31
2022-11-07T11:38:54.943Z,100764.19
2022-11-07T11:41:58.323Z,100763.47
2022-11-07T11:44:56.173Z,100759.03
2022-11-07T11:48:00.662Z,100757.91
2022-11-07T11:51:02.935Z,100751.91
2022-11-07T11:54:00.094Z,100748.94
2022-11-07T11:57:06.985Z,100753.41
2022-11-07T12:00:10.153Z,100763.31
2022-11-07T12:03:24.103Z,100754.63
2022-11-07T12:06:22.905Z,100764.22
2022-11-07T12:09:44.751Z,100742.28
2022-11-07T12:12:44.255Z,100757.91
2022-11-07T12:15:47.930Z,100756.06
2022-11-07T12:19:07.241Z,100753.19
2022-11-07T12:22:20.308Z,100760.19
2022-11-07T12:25:23.792Z,100764.81
2022-11-07T12:28:23.930Z,100767.56
2022-11-07T12:32:03.341Z,100779.97
2022-11-07T12:35:06.700Z,100769.88
2022-11-07T12:38:29.250Z,100765.06
2022-11-07T12:41:56.949Z,100764.81
2022-11-07T12:45:16.515Z,100765.22
2022-11-07T12:48:22.825Z,100765.69
2022-11-07T12:51:57.566Z,100772.28
2022-11-07T12:55:02.596Z,100765.72
2022-11-07T12:58:00.858Z,100765.13
2022-11-07T13:00:57.694Z,100763.53
2022-11-07T13:04:12.942Z,100777.13
2022-11-07T13:07:36.317Z,100782.13
2022-11-07T13:10:47.893Z,100778.41
2022-11-07T13:14:01.616Z,100771.34
2022-11-07T13:16:58.678Z,100769.28
2022-11-07T13:19:58.501Z,100780.34
2022-11-07T13:22:57.950Z,100773.59
2022-11-07T13:26:06.956Z,100778.75
2022-11-07T13:29:35.529Z,100776.34
2022-11-07T13:32:38.336Z,100780.41
2022-11-07T13:35:37.206Z,100772.28
2022-11-07T13:38:34.465Z,100777.22
2022-11-07T13:41:32.001Z,100762.13
2022-11-07T13:44:31.414Z,100762.22
2022-11-07T13:47:33.246Z,100769.28
2022-11-07T13:50:41.203Z,100766.19
2022-11-07T13:54:07.021Z,100776.84
2022-11-07T13:57:15.080Z,100793.34
2022-11-07T14:00:15.676Z,100779.97
2022-11-07T14:03:26.703Z,100780.22
2022-11-07T14:06:23.517Z,100776.63
2022-11-07T14:09:21.352Z,100776.41
2022-11-07T14:12:20.088Z,100784.69
2022-11-07T14:15:17.673Z,100789.28
2022-11-07T14:18:16.123Z,100790.06
2022-11-07T14:21:26.066Z,100793.78
2022-11-07T14:24:31.369Z,100794.19
2022-11-07T14:27:28.801Z,100801.44
2022-11-07T14:30:27.222Z,100796.25
2022-11-07T14:33:24.520Z,100791.72
2022-11-07T14:36:22.182Z,100787.72
2022-11-07T14:39:20.705Z,100791.00
2022-11-07T14:42:22.360Z,100786.94
2022-11-07T14:45:39.491Z,100794.69
2022-11-07T14:48:38.001Z,100789.78
2022-11-07T14:51:34.649Z,100778.91
2022-11-07T14:54:34.719Z,100785.88
2022-11-07T14:57:33.489Z,100789.50
2022-11-07T15:00:30.845Z,100785.00
2022-11-07T15:03:33.582Z,100781.31
2022-11-07T15:06:34.985Z,100795.22
2022-11-07T15:09:33.533Z,100799.38
2022-11-07T15:12:33.496Z,100796.47
2022-11-07T15:15:35.509Z,100795.28
2022-11-07T15:18:38.620Z,100807.38
2022-11-07T15:21:38.405Z,100800.59
2022-11-07T15:24:43.664Z,100799.53
2022-11-07T15:27:40.606Z,100792.13
2022-11-07T15:30:37.945Z,100802.50
2022-11-07T15:33:41.074Z,100801.22
2022-11-07T15:36:41.092Z,100807.66
2022-11-07T15:39:38.794Z,100813.59
2022-11-07T15:42:36.017Z,100801.38
2022-11-07T15:45:33.051Z,100806.44
2022-11-07T15:48:36.875Z,100805.34
2022-11-07T15:51:36.576Z,100809.22
2022-11-07T15:54:33.998Z,100800.81
2022-11-07T15:57:30.989Z,100810.03
2022-11-07T16:00:27.613Z,100802.38
2022-11-07T16:03:25.871Z,100806.72
2022-11-07T16:06:27.587Z,100809.41
2022-11-07T16:09:24.551Z,100803.72
2022-11-07T16:12:21.972Z,100811.13
2022-11-07T16:15:20.374Z,100812.22
2022-11-07T16:18:19.676Z,100811.72
2022-11-07T16:21:20.685Z,100810.78
2022-11-07T16:24:17.889Z,100803.09
2022-11-07T16:27:16.486Z,100803.03
2022-11-07T16:30:17.171Z,100800.28
2022-11-07T16:33:14.071Z,100801.69
2022-11-07T16:36:37.579Z,100814.41
2022-11-07T16:39:34.895Z,100817.38
2022-11-07T16:42:31.957Z,100818.50
2022-11-07T16:45:31.844Z,100808.84
2022-11-07T16:48:29.631Z,100811.84
2022-11-07T16:51:27.143Z,100812.06
2022-11-07T16:54:24.243Z,100823.53
2022-11-07T16:57:22.202Z,100823.28
2022-11-07T17:00:20.325Z,100824.63
2022-11-07T17:03:18.499Z,100829.41
2022-11-07T17:06:35.869Z,100828.94
2022-11-07T17:09:33.196Z,100813.03
2022-11-07T17:12:29.600Z,100822.59
2022-11-07T17:15:26.918Z,100824.03
2022-11-07T17:18:25.424Z,100830.22
2022-11-07T17:21:36.910Z,100814.56
2022-11-07T17:24:33.868Z,100822.28
2022-11-07T17:27:30.928Z,100826.44
2022-11-07T17:30:29.374Z,100826.09
2022-11-07T17:33:27.085Z,100815.19
2022-11-07T17:36:38.071Z,100821.38
2022-11-07T17:39:35.916Z,100819.53
2022-11-07T17:42:37.798Z,100822.31
2022-11-07T17:45:34.646Z,100827.75
2022-11-07T17:48:31.904Z,100828.44
2022-11-07T17:51:29.355Z,100831.69
2022-11-07T17:54:29.665Z,100824.56
2022-11-07T17:57:27.113Z,100840.09
2022-11-07T18:00:25.025Z,100842.97
2022-11-07T18:03:21.924Z,100838.41
2022-11-07T18:06:23.091Z,100832.78
2022-11-07T18:09:19.872Z,100838.09
2022-11-07T18:12:16.940Z,100842.53
2022-11-07T18:15:13.990Z,100837.50
2022-11-07T18:18:11.484Z,100831.63
2022-11-07T18:21:09.034Z,100836.84
2022-11-07T18:24:06.053Z,100835.06
2022-11-07T18:27:05.572Z,100836.09
2022-11-07T18:30:07.441Z,100827.78
2022-11-07T18:33:05.190Z,100830.16
2022-11-07T18:36:02.805Z,100823.38
2022-11-07T18:39:04.960Z,100853.63
2022-11-07T18:42:01.997Z,100843.94
2022-11-07T18:44:58.775Z,100835.94
2022-11-07T18:47:55.766Z,100828.28
2022-11-07T18:50:53.467Z,100842.66
2022-11-07T18:53:51.925Z,100844.78
2022-11-07T18:56:48.856Z,100830.25
2022-11-07T18:59:46.125Z,100843.38
2022-11-07T19:02:43.137Z,100824.03
2022-11-07T19:05:41.269Z,100833.56
2022-11-07T19:08:39.567Z,100845.56
2022-11-07T19:11:36.930Z,100841.34
2022-11-07T19:14:34.146Z,100835.56
2022-11-07T19:17:31.057Z,100824.66
2022-11-07T19:20:28.118Z,100814.28
2022-11-07T19:23:25.031Z,100817.00
2022-11-07T19:26:21.897Z,100821.19
2022-11-07T19:29:19.239Z,100826.41
2022-11-07T19:32:15.982Z,100823.91
2022-11-07T19:35:12.996Z,100837.63
2022-11-07T19:38:10.894Z,100829.41
2022-11-07T19:41:08.410Z,100840.09
2022-11-07T19:44:07.213Z,100842.22
2022-11-07T19:47:04.170Z,100830.81
2022-11-07T19:50:01.313Z,100833.53
2022-11-07T19:52:58.232Z,100822.38
2022-11-07T19:55:55.067Z,100828.84
2022-11-07T19:58:51.991Z,100826.66
2022-11-07T20:02:10.495Z,100817.13
2022-11-07T20:05:06.783Z,100821.81
2022-11-07T20:08:05.327Z,100824.25
2022-11-07T20:11:03.455Z,100832.97
2022-11-07T20:14:03.689Z,100839.31
2022-11-07T20:17:01.092Z,100837.50
2022-11-07T20:20:01.201Z,100838.84
2022-11-07T20:23:02.004Z,100842.28
2022-11-07T20:25:59.305Z,100852.19
2022-11-07T20:28:55.963Z,100842.28
2022-11-07T20:31:53.346Z,100845.78
2022-11-07T20:34:53.868Z,100849.28
2022-11-07T20:37:51.365Z,100847.44
2022-11-07T20:40:48.251Z,100856.16
2022-11-07T20:43:45.090Z,100858.53
2022-11-07T20:46:44.442Z,100855.53
2022-11-07T20:49:42.170Z,100862.56
2022-11-07T20:52:39.641Z,100860.84
2022-11-07T20:55:42.728Z,100862.41
2022-11-07T20:58:41.169Z,100860.22
2022-11-07T21:01:38.068Z,100853.53
2022-11-07T21:04:49.859Z,100867.69
2022-11-07T21:07:51.878Z,100856.81
2022-11-07T21:10:50.417Z,100862.72
2022-11-07T21:13:52.656Z,100872.06
2022-11-07T21:16:49.975Z,100863.06
2022-11-07T21:19:46.974Z,100868.06
2022-11-07T21:22:48.625Z,100871.69
2022-11-07T21:25:48.440Z,100863.22
2022-11-07T21:28:46.064Z,100867.13
2022-11-07T21:31:43.268Z,100871.81
2022-11-07T21:34:40.349Z,100880.56
2022-11-07T21:37:37.107Z,100873.81
2022-11-07T21:40:34.014Z,100883.56
2022-11-07T21:43:31.195Z,100872.47
2022-11-07T21:46:29.279Z,100873.19
2022-11-07T21:49:26.185Z,100876.84
2022-11-07T21:52:23.177Z,100868.59
2022-11-07T21:55:19.916Z,100864.44
2022-11-07T21:58:17.257Z,100860.50
2022-11-07T22:01:14.442Z,100874.25
2022-11-07T22:04:13.328Z,100859.81
2022-11-07T22:07:11.663Z,100855.94
2022-11-07T22:10:09.554Z,100847.03
2022-11-07T22:13:07.502Z,100852.75
2022-11-07T22:16:15.670Z,100859.66
2022-11-07T22:19:13.397Z,100856.03
2022-11-07T22:22:10.192Z,100857.81
2022-11-07T22:25:07.545Z,100844.78
2022-11-07T22:28:05.545Z,100843.16
2022-11-07T22:31:10.558Z,100849.91
2022-11-07T22:34:07.950Z,100849.34
2022-11-07T22:37:05.408Z,100848.88
2022-11-07T22:40:02.320Z,100833.47
2022-11-07T22:42:59.453Z,100837.16
2022-11-07T22:45:56.112Z,100856.56
2022-11-07T22:48:53.706Z,100858.81
2022-11-07T22:51:51.455Z,100856.56
2022-11-07T22:54:48.514Z,100849.63
2022-11-07T22:57:46.042Z,100855.63
2022-11-07T23:00:42.898Z,100848.53
2022-11-07T23:03:40.431Z,100856.31
2022-11-07T23:06:37.366Z,100851.84
2022-11-07T23:09:34.341Z,100846.69
2022-11-07T23:12:31.431Z,100855.19
2022-11-07T23:15:28.471Z,100850.81
2022-11-07T23:18:25.389Z,100853.50
2022-11-07T23:21:22.342Z,100839.59
2022-11-07T23:24:20.658Z,100841.47
2022-11-07T23:27:18.515Z,100848.69
2022-11-07T23:30:16.258Z,100835.53
2022-11-07T23:33:13.258Z,100831.88
2022-11-07T23:36:14.432Z,100831.72
2022-11-07T23:39:16.803Z,100838.44
2022-11-07T23:42:14.036Z,100831.34
2022-11-07T23:45:29.361Z,100849.81
2022-11-07T23:48:44.539Z,100847.28
2022-11-07T23:51:42.124Z,100834.31
2022-11-07T23:54:57.584Z,100841.41
2022-11-07T23:58:14.034Z,100827.41
